sensor_id;sensor_type;location;lat;lon;timestamp;pressure;altitude;pressure_sealevel;temperature;humidity
72086;BME280;64750;52.134;5.424;2023-04-28T00:02:00;101594.56;;;10.00;53.55
72086;BME280;64750;52.134;5.424;2023-04-28T00:04:27;101602.44;;;10.00;53.54
72086;BME280;64750;52.134;5.424;2023-04-28T00:06:54;101609.25;;;10.04;54.04
72086;BME280;64750;52.134;5.424;2023-04-28T00:09:21;101604.00;;;10.04;54.30
72086;BME280;64750;52.134;5.424;2023-04-28T00:11:47;101598.75;;;10.04;53.57
72086;BME280;64750;52.134;5.424;2023-04-28T00:14:13;101589.00;;;10.06;53.28
72086;BME280;64750;52.134;5.424;2023-04-28T00:16:42;101580.06;;;10.10;53.79
72086;BME280;64750;52.134;5.424;2023-04-28T00:19:08;101578.50;;;10.06;53.60
72086;BME280;64750;52.134;5.424;2023-04-28T00:21:35;101580.34;;;10.04;53.93
72086;BME280;64750;52.134;5.424;2023-04-28T00:24:02;101566.16;;;10.08;53.95
72086;BME280;64750;52.134;5.424;2023-04-28T00:26:28;101558.34;;;10.07;53.48
72086;BME280;64750;52.134;5.424;2023-04-28T00:28:55;101553.81;;;10.10;53.81
72086;BME280;64750;52.134;5.424;2023-04-28T00:31:21;101557.34;;;10.09;53.40
72086;BME280;64750;52.134;5.424;2023-04-28T00:33:47;101545.13;;;10.08;53.45
72086;BME280;64750;52.134;5.424;2023-04-28T00:36:14;101539.25;;;10.03;53.26
72086;BME280;64750;52.134;5.424;2023-04-28T00:38:40;101539.53;;;9.97;53.65
72086;BME280;64750;52.134;5.424;2023-04-28T00:41:09;101536.34;;;9.90;53.81
72086;BME280;64750;52.134;5.424;2023-04-28T00:43:46;101539.69;;;9.94;54.02
72086;BME280;64750;52.134;5.424;2023-04-28T00:46:19;101546.56;;;9.96;53.87
72086;BME280;64750;52.134;5.424;2023-04-28T00:48:48;101547.41;;;9.97;54.01
72086;BME280;64750;52.134;5.424;2023-04-28T00:51:15;101538.44;;;10.01;53.92
72086;BME280;64750;52.134;5.424;2023-04-28T00:53:43;101536.63;;;10.03;53.83
72086;BME280;64750;52.134;5.424;2023-04-28T00:56:10;101536.47;;;10.06;54.44
72086;BME280;64750;52.134;5.424;2023-04-28T00:58:37;101532.44;;;9.99;53.93
72086;BME280;64750;52.134;5.424;2023-04-28T01:01:04;101531.53;;;10.00;54.27
72086;BME280;64750;52.134;5.424;2023-04-28T01:03:33;101526.28;;;10.00;54.10
72086;BME280;64750;52.134;5.424;2023-04-28T01:06:00;101522.28;;;9.91;54.43
72086;BME280;64750;52.134;5.424;2023-04-28T01:08:28;101511.72;;;9.93;54.51
72086;BME280;64750;52.134;5.424;2023-04-28T01:10:54;101513.06;;;9.82;54.53
72086;BME280;64750;52.134;5.424;2023-04-28T01:13:21;101507.53;;;9.89;54.75
72086;BME280;64750;52.134;5.424;2023-04-28T01:15:48;101513.16;;;9.81;54.53
72086;BME280;64750;52.134;5.424;2023-04-28T01:18:14;101515.97;;;9.76;55.30
72086;BME280;64750;52.134;5.424;2023-04-28T01:20:41;101516.50;;;9.84;55.64
72086;BME280;64750;52.134;5.424;2023-04-28T01:23:12;101512.78;;;9.89;55.83
72086;BME280;64750;52.134;5.424;2023-04-28T01:25:39;101518.31;;;9.82;55.60
72086;BME280;64750;52.134;5.424;2023-04-28T01:28:06;101504.19;;;9.85;55.70
72086;BME280;64750;52.134;5.424;2023-04-28T01:30:32;101504.00;;;9.90;55.85
72086;BME280;64750;52.134;5.424;2023-04-28T01:33:01;101510.25;;;9.87;55.62
72086;BME280;64750;52.134;5.424;2023-04-28T01:35:28;101496.16;;;9.88;55.76
72086;BME280;64750;52.134;5.424;2023-04-28T01:37:54;101493.50;;;9.90;55.73
72086;BME280;64750;52.134;5.424;2023-04-28T01:40:21;101493.50;;;9.90;55.50
72086;BME280;64750;52.134;5.424;2023-04-28T01:42:47;101491.97;;;9.84;56.02
72086;BME280;64750;52.134;5.424;2023-04-28T01:45:13;101476.03;;;9.89;55.90
72086;BME280;64750;52.134;5.424;2023-04-28T01:47:40;101482.47;;;9.81;55.54
72086;BME280;64750;52.134;5.424;2023-04-28T01:50:06;101474.47;;;9.84;55.74
72086;BME280;64750;52.134;5.424;2023-04-28T01:52:33;101469.34;;;9.81;55.39
72086;BME280;64750;52.134;5.424;2023-04-28T01:54:59;101463.97;;;9.84;55.79
72086;BME280;64750;52.134;5.424;2023-04-28T01:57:25;101464.72;;;9.87;55.26
72086;BME280;64750;52.134;5.424;2023-04-28T01:59:54;101470.06;;;9.85;55.67
72086;BME280;64750;52.134;5.424;2023-04-28T02:02:20;101477.16;;;9.83;55.32
72086;BME280;64750;52.134;5.424;2023-04-28T02:04:47;101465.47;;;9.71;55.55
72086;BME280;64750;52.134;5.424;2023-04-28T02:07:13;101458.50;;;9.70;55.56
72086;BME280;64750;52.134;5.424;2023-04-28T02:09:40;101465.81;;;9.63;55.42
72086;BME280;64750;52.134;5.424;2023-04-28T02:12:06;101459.56;;;9.66;55.93
72086;BME280;64750;52.134;5.424;2023-04-28T02:14:33;101462.13;;;9.67;55.73
72086;BME280;64750;52.134;5.424;2023-04-28T02:16:59;101458.84;;;9.62;55.92
72086;BME280;64750;52.134;5.424;2023-04-28T02:19:28;101456.16;;;9.64;56.04
72086;BME280;64750;52.134;5.424;2023-04-28T02:21:54;101454.59;;;9.60;55.24
72086;BME280;64750;52.134;5.424;2023-04-28T02:24:21;101452.19;;;9.55;55.82
72086;BME280;64750;52.134;5.424;2023-04-28T02:26:47;101441.56;;;9.58;56.36
72086;BME280;64750;52.134;5.424;2023-04-28T02:29:14;101437.44;;;9.52;56.32
72086;BME280;64750;52.134;5.424;2023-04-28T02:31:40;101434.81;;;9.52;56.41
72086;BME280;64750;52.134;5.424;2023-04-28T02:34:07;101431.22;;;9.55;55.95
72086;BME280;64750;52.134;5.424;2023-04-28T02:36:33;101426.09;;;9.52;56.12
72086;BME280;64750;52.134;5.424;2023-04-28T02:39:00;101419.91;;;9.53;56.17
72086;BME280;64750;52.134;5.424;2023-04-28T02:41:26;101426.81;;;9.56;56.22
72086;BME280;64750;52.134;5.424;2023-04-28T02:43:53;101425.38;;;9.48;56.16
72086;BME280;64750;52.134;5.424;2023-04-28T02:46:19;101419.22;;;9.49;56.17
72086;BME280;64750;52.134;5.424;2023-04-28T02:48:45;101420.06;;;9.50;56.57
72086;BME280;64750;52.134;5.424;2023-04-28T02:51:12;101415.88;;;9.46;56.62
72086;BME280;64750;52.134;5.424;2023-04-28T02:53:39;101401.00;;;9.46;56.57
72086;BME280;64750;52.134;5.424;2023-04-28T02:56:06;101406.16;;;9.48;56.54
72086;BME280;64750;52.134;5.424;2023-04-28T02:58:32;101390.56;;;9.45;56.48
72086;BME280;64750;52.134;5.424;2023-04-28T03:00:59;101382.72;;;9.45;56.41
72086;BME280;64750;52.134;5.424;2023-04-28T03:03:25;101380.13;;;9.43;56.96
72086;BME280;64750;52.134;5.424;2023-04-28T03:05:52;101380.28;;;9.40;56.88
72086;BME280;64750;52.134;5.424;2023-04-28T03:08:18;101382.13;;;9.38;56.93
72086;BME280;64750;52.134;5.424;2023-04-28T03:10:46;101376.75;;;9.41;56.83
72086;BME280;64750;52.134;5.424;2023-04-28T03:13:12;101373.06;;;9.45;56.87
72086;BME280;64750;52.134;5.424;2023-04-28T03:15:38;101368.88;;;9.41;56.87
72086;BME280;64750;52.134;5.424;2023-04-28T03:18:05;101376.66;;;9.43;57.05
72086;BME280;64750;52.134;5.424;2023-04-28T03:20:32;101374.03;;;9.43;57.19
72086;BME280;64750;52.134;5.424;2023-04-28T03:22:58;101365.19;;;9.45;57.31
72086;BME280;64750;52.134;5.424;2023-04-28T03:25:25;101366.25;;;9.41;57.15
72086;BME280;64750;52.134;5.424;2023-04-28T03:27:51;101368.09;;;9.39;57.27
72086;BME280;64750;52.134;5.424;2023-04-28T03:30:18;101359.09;;;9.45;57.29
72086;BME280;64750;52.134;5.424;2023-04-28T03:32:44;101357.31;;;9.45;57.43
72086;BME280;64750;52.134;5.424;2023-04-28T03:35:11;101354.69;;;9.45;56.97
72086;BME280;64750;52.134;5.424;2023-04-28T03:37:37;101341.41;;;9.48;56.82
72086;BME280;64750;52.134;5.424;2023-04-28T03:40:04;101339.09;;;9.42;57.27
72086;BME280;64750;52.134;5.424;2023-04-28T03:42:30;101333.22;;;9.37;57.29
72086;BME280;64750;52.134;5.424;2023-04-28T03:44:57;101332.59;;;9.32;57.60
72086;BME280;64750;52.134;5.424;2023-04-28T03:47:23;101337.53;;;9.38;57.55
72086;BME280;64750;52.134;5.424;2023-04-28T03:49:50;101335.47;;;9.45;57.47
72086;BME280;64750;52.134;5.424;2023-04-28T03:52:17;101334.47;;;9.47;57.43
72086;BME280;64750;52.134;5.424;2023-04-28T03:54:43;101336.16;;;9.48;57.37
72086;BME280;64750;52.134;5.424;2023-04-28T03:57:10;101330.78;;;9.51;57.46
72086;BME280;64750;52.134;5.424;2023-04-28T03:59:37;101328.25;;;9.50;57.67
72086;BME280;64750;52.134;5.424;2023-04-28T04:02:03;101331.63;;;9.52;57.39
72086;BME280;64750;52.134;5.424;2023-04-28T04:04:30;101326.44;;;9.50;57.29
72086;BME280;64750;52.134;5.424;2023-04-28T04:06:57;101322.91;;;9.51;57.54
72086;BME280;64750;52.134;5.424;2023-04-28T04:09:24;101319.22;;;9.56;57.95
72086;BME280;64750;52.134;5.424;2023-04-28T04:11:50;101313.03;;;9.57;57.70
72086;BME280;64750;52.134;5.424;2023-04-28T04:14:17;101313.13;;;9.55;57.79
72086;BME280;64750;52.134;5.424;2023-04-28T04:16:45;101309.56;;;9.56;57.87
72086;BME280;64750;52.134;5.424;2023-04-28T04:19:12;101307.78;;;9.57;57.88
72086;BME280;64750;52.134;5.424;2023-04-28T04:21:39;101301.63;;;9.58;58.07
72086;BME280;64750;52.134;5.424;2023-04-28T04:24:06;101289.44;;;9.57;58.39
72086;BME280;64750;52.134;5.424;2023-04-28T04:26:32;101294.59;;;9.58;58.04
72086;BME280;64750;52.134;5.424;2023-04-28T04:28:59;101296.38;;;9.58;58.25
72086;BME280;64750;52.134;5.424;2023-04-28T04:31:25;101296.38;;;9.58;58.21
72086;BME280;64750;52.134;5.424;2023-04-28T04:33:52;101290.19;;;9.59;58.23
72086;BME280;64750;52.134;5.424;2023-04-28T04:36:18;101291.88;;;9.60;58.15
72086;BME280;64750;52.134;5.424;2023-04-28T04:38:45;101290.34;;;9.56;58.20
72086;BME280;64750;52.134;5.424;2023-04-28T04:41:11;101284.25;;;9.55;58.27
72086;BME280;64750;52.134;5.424;2023-04-28T04:43:37;101276.31;;;9.57;58.91
72086;BME280;64750;52.134;5.424;2023-04-28T04:46:04;101280.69;;;9.56;58.98
72086;BME280;64750;52.134;5.424;2023-04-28T04:48:30;101270.25;;;9.55;58.89
72086;BME280;64750;52.134;5.424;2023-04-28T04:50:57;101267.63;;;9.55;58.83
72086;BME280;64750;52.134;5.424;2023-04-28T04:53:23;101280.63;;;9.58;59.20
72086;BME280;64750;52.134;5.424;2023-04-28T04:55:49;101268.34;;;9.58;59.12
72086;BME280;64750;52.134;5.424;2023-04-28T04:58:16;101258.63;;;9.60;59.01
72086;BME280;64750;52.134;5.424;2023-04-28T05:00:43;101272.59;;;9.61;59.07
72086;BME280;64750;52.134;5.424;2023-04-28T05:03:09;101269.06;;;9.62;59.07
72086;BME280;64750;52.134;5.424;2023-04-28T05:05:37;101267.25;;;9.62;59.28
72086;BME280;64750;52.134;5.424;2023-04-28T05:08:03;101249.91;;;9.60;59.17
72086;BME280;64750;52.134;5.424;2023-04-28T05:10:31;101266.50;;;9.60;59.53
72086;BME280;64750;52.134;5.424;2023-04-28T05:12:57;101258.56;;;9.62;59.39
72086;BME280;64750;52.134;5.424;2023-04-28T05:15:24;101264.72;;;9.61;59.82
72086;BME280;64750;52.134;5.424;2023-04-28T05:17:50;101259.38;;;9.62;60.20
72086;BME280;64750;52.134;5.424;2023-04-28T05:20:17;101255.00;;;9.63;60.16
72086;BME280;64750;52.134;5.424;2023-04-28T05:22:43;101262.56;;;9.51;60.59
72086;BME280;64750;52.134;5.424;2023-04-28T05:25:09;101260.84;;;9.50;60.51
72086;BME280;64750;52.134;5.424;2023-04-28T05:27:36;101267.81;;;9.51;61.15
72086;BME280;64750;52.134;5.424;2023-04-28T05:30:06;101265.81;;;9.57;60.96
72086;BME280;64750;52.134;5.424;2023-04-28T05:32:34;101263.19;;;9.57;61.24
72086;BME280;64750;52.134;5.424;2023-04-28T05:35:01;101270.34;;;9.53;61.56
72086;BME280;64750;52.134;5.424;2023-04-28T05:37:27;101269.34;;;9.56;61.35
72086;BME280;64750;52.134;5.424;2023-04-28T05:39:54;101270.97;;;9.58;61.97
72086;BME280;64750;52.134;5.424;2023-04-28T05:42:20;101271.88;;;9.57;62.95
72086;BME280;64750;52.134;5.424;2023-04-28T05:44:47;101278.00;;;9.58;63.28
72086;BME280;64750;52.134;5.424;2023-04-28T05:47:13;101276.13;;;9.60;64.81
72086;BME280;64750;52.134;5.424;2023-04-28T05:49:39;101264.94;;;9.56;66.62
72086;BME280;64750;52.134;5.424;2023-04-28T05:52:06;101263.47;;;9.50;68.29
72086;BME280;64750;52.134;5.424;2023-04-28T05:54:32;101266.41;;;9.44;69.23
72086;BME280;64750;52.134;5.424;2023-04-28T05:56:59;101267.63;;;9.37;70.12
72086;BME280;64750;52.134;5.424;2023-04-28T05:59:27;101265.00;;;9.37;70.83
72086;BME280;64750;52.134;5.424;2023-04-28T06:01:55;101266.84;;;9.35;70.67
72086;BME280;64750;52.134;5.424;2023-04-28T06:04:22;101277.19;;;9.38;71.51
72086;BME280;64750;52.134;5.424;2023-04-28T06:06:49;101276.13;;;9.42;70.92
72086;BME280;64750;52.134;5.424;2023-04-28T06:09:15;101281.22;;;9.45;71.00
72086;BME280;64750;52.134;5.424;2023-04-28T06:11:42;101272.50;;;9.45;71.22
72086;BME280;64750;52.134;5.424;2023-04-28T06:14:09;101266.69;;;9.38;71.87
72086;BME280;64750;52.134;5.424;2023-04-28T06:16:35;101255.28;;;9.39;72.08
72086;BME280;64750;52.134;5.424;2023-04-28T06:19:02;101246.28;;;9.45;71.77
72086;BME280;64750;52.134;5.424;2023-04-28T06:21:29;101253.06;;;9.49;72.03
72086;BME280;64750;52.134;5.424;2023-04-28T06:23:57;101237.16;;;9.52;72.06
72086;BME280;64750;52.134;5.424;2023-04-28T06:26:23;101232.69;;;9.54;72.31
72086;BME280;64750;52.134;5.424;2023-04-28T06:28:50;101237.84;;;9.56;72.50
72086;BME280;64750;52.134;5.424;2023-04-28T06:31:17;101236.03;;;9.58;72.34
72086;BME280;64750;52.134;5.424;2023-04-28T06:33:43;101229.81;;;9.59;72.00
72086;BME280;64750;52.134;5.424;2023-04-28T06:36:10;101230.69;;;9.59;72.58
72086;BME280;64750;52.134;5.424;2023-04-28T06:38:40;101226.28;;;9.60;72.39
72086;BME280;64750;52.134;5.424;2023-04-28T06:41:09;101228.91;;;9.60;72.48
72086;BME280;64750;52.134;5.424;2023-04-28T06:43:36;101234.84;;;9.63;72.84
72086;BME280;64750;52.134;5.424;2023-04-28T06:46:03;101232.16;;;9.65;72.81
72086;BME280;64750;52.134;5.424;2023-04-28T06:48:29;101228.59;;;9.66;73.12
72086;BME280;64750;52.134;5.424;2023-04-28T06:50:56;101229.38;;;9.68;73.45
72086;BME280;64750;52.134;5.424;2023-04-28T06:53:22;101231.84;;;9.71;73.58
72086;BME280;64750;52.134;5.424;2023-04-28T06:55:49;101228.22;;;9.74;74.18
72086;BME280;64750;52.134;5.424;2023-04-28T06:58:15;101224.59;;;9.76;74.45
72086;BME280;64750;52.134;5.424;2023-04-28T07:00:42;101227.13;;;9.78;74.91
72086;BME280;64750;52.134;5.424;2023-04-28T07:03:08;101220.19;;;9.77;75.40
72086;BME280;64750;52.134;5.424;2023-04-28T07:05:35;101213.94;;;9.79;75.67
72086;BME280;64750;52.134;5.424;2023-04-28T07:08:02;101211.16;;;9.82;76.05
72086;BME280;64750;52.134;5.424;2023-04-28T07:10:28;101212.00;;;9.83;76.44
72086;BME280;64750;52.134;5.424;2023-04-28T07:12:55;101211.94;;;9.84;76.46
72086;BME280;64750;52.134;5.424;2023-04-28T07:15:21;101218.84;;;9.85;76.59
72086;BME280;64750;52.134;5.424;2023-04-28T07:17:49;101213.47;;;9.89;76.81
72086;BME280;64750;52.134;5.424;2023-04-28T07:20:15;101224.66;;;9.92;77.35
72086;BME280;64750;52.134;5.424;2023-04-28T07:22:42;101220.25;;;9.93;77.54
72086;BME280;64750;52.134;5.424;2023-04-28T07:25:09;101223.66;;;9.95;77.92
72086;BME280;64750;52.134;5.424;2023-04-28T07:27:35;101216.53;;;9.97;78.11
72086;BME280;64750;52.134;5.424;2023-04-28T07:30:02;101219.03;;;10.00;78.61
72086;BME280;64750;52.134;5.424;2023-04-28T07:32:44;101216.13;;;10.05;79.13
72086;BME280;64750;52.134;5.424;2023-04-28T07:35:10;101223.00;;;10.07;79.10
72086;BME280;64750;52.134;5.424;2023-04-28T07:37:36;101221.16;;;10.09;79.49
72086;BME280;64750;52.134;5.424;2023-04-28T07:40:04;101221.84;;;10.13;78.81
72086;BME280;64750;52.134;5.424;2023-04-28T07:42:31;101220.84;;;10.15;79.53
72086;BME280;64750;52.134;5.424;2023-04-28T07:44:57;101215.41;;;10.18;79.80
72086;BME280;64750;52.134;5.424;2023-04-28T07:47:24;101216.13;;;10.22;80.34
72086;BME280;64750;52.134;5.424;2023-04-28T07:49:50;101204.59;;;10.25;80.31
72086;BME280;64750;52.134;5.424;2023-04-28T07:52:16;101198.31;;;10.27;80.21
72086;BME280;64750;52.134;5.424;2023-04-28T07:54:43;101204.19;;;10.32;80.38
72086;BME280;64750;52.134;5.424;2023-04-28T07:57:09;101206.63;;;10.37;80.74
72086;BME280;64750;52.134;5.424;2023-04-28T07:59:36;101203.72;;;10.42;81.32
72086;BME280;64750;52.134;5.424;2023-04-28T08:02:02;101197.44;;;10.44;81.40
72086;BME280;64750;52.134;5.424;2023-04-28T08:04:29;101203.47;;;10.46;81.56
72086;BME280;64750;52.134;5.424;2023-04-28T08:06:58;101200.78;;;10.48;81.49
72086;BME280;64750;52.134;5.424;2023-04-28T08:09:25;101200.69;;;10.49;81.51
72086;BME280;64750;52.134;5.424;2023-04-28T08:11:52;101199.75;;;10.50;81.21
72086;BME280;64750;52.134;5.424;2023-04-28T08:14:19;101196.19;;;10.52;81.25
72086;BME280;64750;52.134;5.424;2023-04-28T08:16:45;101194.31;;;10.54;81.44
72086;BME280;64750;52.134;5.424;2023-04-28T08:19:12;101192.47;;;10.56;81.95
72086;BME280;64750;52.134;5.424;2023-04-28T08:21:39;101205.50;;;10.57;82.65
72086;BME280;64750;52.134;5.424;2023-04-28T08:24:05;101209.00;;;10.58;82.50
72086;BME280;64750;52.134;5.424;2023-04-28T08:26:33;101213.34;;;10.59;82.65
72086;BME280;64750;52.134;5.424;2023-04-28T08:28:59;101204.50;;;10.60;82.75
72086;BME280;64750;52.134;5.424;2023-04-28T08:31:26;101208.09;;;10.59;82.85
72086;BME280;64750;52.134;5.424;2023-04-28T08:33:52;101214.19;;;10.59;82.79
72086;BME280;64750;52.134;5.424;2023-04-28T08:36:21;101210.63;;;10.60;82.97
72086;BME280;64750;52.134;5.424;2023-04-28T08:38:48;101210.53;;;10.62;83.48
72086;BME280;64750;52.134;5.424;2023-04-28T08:41:15;101205.28;;;10.62;83.28
72086;BME280;64750;52.134;5.424;2023-04-28T08:43:42;101200.03;;;10.62;83.37
72086;BME280;64750;52.134;5.424;2023-04-28T08:46:09;101198.91;;;10.66;84.03
72086;BME280;64750;52.134;5.424;2023-04-28T08:48:40;101200.53;;;10.69;84.10
72086;BME280;64750;52.134;5.424;2023-04-28T08:51:08;101203.84;;;10.72;84.32
72086;BME280;64750;52.134;5.424;2023-04-28T08:53:38;101200.09;;;10.76;84.70
72086;BME280;64750;52.134;5.424;2023-04-28T08:56:26;101193.00;;;10.78;84.88
72086;BME280;64750;52.134;5.424;2023-04-28T08:59:00;101202.50;;;10.81;85.25
72086;BME280;64750;52.134;5.424;2023-04-28T09:01:27;101200.59;;;10.83;85.63
72086;BME280;64750;52.134;5.424;2023-04-28T09:03:53;101202.41;;;10.82;85.61
72086;BME280;64750;52.134;5.424;2023-04-28T09:06:20;101196.22;;;10.83;85.99
72086;BME280;64750;52.134;5.424;2023-04-28T09:08:48;101197.03;;;10.84;86.01
72086;BME280;64750;52.134;5.424;2023-04-28T09:11:14;101195.19;;;10.86;86.02
72086;BME280;64750;52.134;5.424;2023-04-28T09:13:41;101185.50;;;10.87;86.43
72086;BME280;64750;52.134;5.424;2023-04-28T09:16:08;101182.88;;;10.87;86.59
72086;BME280;64750;52.134;5.424;2023-04-28T09:18:34;101183.66;;;10.89;86.69
72086;BME280;64750;52.134;5.424;2023-04-28T09:21:11;101177.47;;;10.90;87.08
72086;BME280;64750;52.134;5.424;2023-04-28T09:23:47;101180.09;;;10.90;86.75
72086;BME280;64750;52.134;5.424;2023-04-28T09:26:14;101178.22;;;10.92;87.11
72086;BME280;64750;52.134;5.424;2023-04-28T09:28:40;101185.25;;;10.91;87.65
72086;BME280;64750;52.134;5.424;2023-04-28T09:31:21;101187.81;;;10.93;87.00
72086;BME280;64750;52.134;5.424;2023-04-28T09:34:00;101190.44;;;10.93;87.52
72086;BME280;64750;52.134;5.424;2023-04-28T09:36:28;101182.44;;;10.94;87.36
72086;BME280;64750;52.134;5.424;2023-04-28T09:38:59;101192.88;;;10.96;87.93
72086;BME280;64750;52.134;5.424;2023-04-28T09:41:39;101181.28;;;11.00;88.04
72086;BME280;64750;52.134;5.424;2023-04-28T09:44:16;101175.16;;;10.99;88.16
72086;BME280;64750;52.134;5.424;2023-04-28T09:46:45;101172.28;;;11.04;88.31
72086;BME280;64750;52.134;5.424;2023-04-28T09:49:12;101173.97;;;11.05;88.64
72086;BME280;64750;52.134;5.424;2023-04-28T09:51:39;101171.16;;;11.08;89.15
72086;BME280;64750;52.134;5.424;2023-04-28T09:54:06;101163.16;;;11.10;89.57
72086;BME280;64750;52.134;5.424;2023-04-28T09:56:34;101159.50;;;11.12;89.95
72086;BME280;64750;52.134;5.424;2023-04-28T09:59:06;101169.88;;;11.15;90.26
72086;BME280;64750;52.134;5.424;2023-04-28T10:01:36;101166.31;;;11.16;90.65
72086;BME280;64750;52.134;5.424;2023-04-28T10:04:07;101170.63;;;11.18;90.52
72086;BME280;64750;52.134;5.424;2023-04-28T10:06:34;101169.69;;;11.19;90.82
72086;BME280;64750;52.134;5.424;2023-04-28T10:09:02;101164.28;;;11.22;91.04
72086;BME280;64750;52.134;5.424;2023-04-28T10:11:28;101167.63;;;11.24;91.59
72086;BME280;64750;52.134;5.424;2023-04-28T10:13:55;101157.13;;;11.24;91.48
72086;BME280;64750;52.134;5.424;2023-04-28T10:16:22;101157.88;;;11.26;91.65
72086;BME280;64750;52.134;5.424;2023-04-28T10:18:50;101161.34;;;11.26;92.10
72086;BME280;64750;52.134;5.424;2023-04-28T10:21:18;101158.63;;;11.28;92.20
72086;BME280;64750;52.134;5.424;2023-04-28T10:26:19;101161.19;;;11.29;92.49
72086;BME280;64750;52.134;5.424;2023-04-28T10:28:49;101168.13;;;11.30;92.52
72086;BME280;64750;52.134;5.424;2023-04-28T10:31:17;101166.25;;;11.32;92.64
72086;BME280;64750;52.134;5.424;2023-04-28T10:33:46;101172.19;;;11.36;92.77
72086;BME280;64750;52.134;5.424;2023-04-28T10:36:50;101165.03;;;11.38;93.34
72086;BME280;64750;52.134;5.424;2023-04-28T10:39:18;101158.75;;;11.41;93.17
72086;BME280;64750;52.134;5.424;2023-04-28T10:41:45;101164.69;;;11.44;93.32
72086;BME280;64750;52.134;5.424;2023-04-28T11:00:42;101165.47;;;11.61;94.09
72086;BME280;64750;52.134;5.424;2023-04-28T11:03:40;101166.16;;;11.64;94.36
72086;BME280;64750;52.134;5.424;2023-04-28T11:08:55;101157.13;;;11.69;94.60
72086;BME280;64750;52.134;5.424;2023-04-28T11:11:27;101165.50;;;11.75;94.54
72086;BME280;64750;52.134;5.424;2023-04-28T11:16:51;101167.97;;;11.78;94.94
72086;BME280;64750;52.134;5.424;2023-04-28T11:19:20;101160.81;;;11.80;94.94
72086;BME280;64750;52.134;5.424;2023-04-28T11:21:48;101151.97;;;11.81;95.16
72086;BME280;64750;52.134;5.424;2023-04-28T11:24:15;101161.56;;;11.82;95.24
72086;BME280;64750;52.134;5.424;2023-04-28T11:26:43;101152.84;;;11.82;95.42
72086;BME280;64750;52.134;5.424;2023-04-28T11:29:10;101159.69;;;11.85;95.60
72086;BME280;64750;52.134;5.424;2023-04-28T11:31:37;101153.31;;;11.89;95.68
72086;BME280;64750;52.134;5.424;2023-04-28T11:34:06;101151.59;;;11.88;95.64
72086;BME280;64750;52.134;5.424;2023-04-28T11:36:38;101144.28;;;11.93;95.73
72086;BME280;64750;52.134;5.424;2023-04-28T11:39:10;101154.66;;;11.96;95.77
72086;BME280;64750;52.134;5.424;2023-04-28T11:41:43;101146.66;;;11.97;95.76
72086;BME280;64750;52.134;5.424;2023-04-28T11:44:15;101145.78;;;11.97;95.81
72086;BME280;64750;52.134;5.424;2023-04-28T11:49:12;101145.63;;;12.00;95.60
72086;BME280;64750;52.134;5.424;2023-04-28T11:51:40;101149.00;;;12.02;95.67
72086;BME280;64750;52.134;5.424;2023-04-28T11:54:08;101144.59;;;12.03;95.58
72086;BME280;64750;52.134;5.424;2023-04-28T11:56:38;101147.31;;;12.01;95.29
72086;BME280;64750;52.134;5.424;2023-04-28T11:59:11;101163.13;;;12.01;95.06
72086;BME280;64750;52.134;5.424;2023-04-28T12:01:49;101162.94;;;12.04;95.04
72086;BME280;64750;52.134;5.424;2023-04-28T12:04:39;101155.78;;;12.06;95.36
72086;BME280;64750;52.134;5.424;2023-04-28T12:09:37;101156.53;;;12.08;95.29
72086;BME280;64750;52.134;5.424;2023-04-28T12:12:06;101157.09;;;12.13;95.28
72086;BME280;64750;52.134;5.424;2023-04-28T12:14:59;101158.59;;;12.18;95.44
72086;BME280;64750;52.134;5.424;2023-04-28T12:19:59;101162.66;;;12.23;95.28
72086;BME280;64750;52.134;5.424;2023-04-28T12:22:26;101161.72;;;12.24;95.39
72086;BME280;64750;52.134;5.424;2023-04-28T12:27:28;101165.19;;;12.25;95.39
72086;BME280;64750;52.134;5.424;2023-04-28T12:29:54;101163.38;;;12.25;95.29
72086;BME280;64750;52.134;5.424;2023-04-28T12:32:40;101168.38;;;12.30;95.34
72086;BME280;64750;52.134;5.424;2023-04-28T12:35:07;101159.53;;;12.31;95.17
72086;BME280;64750;52.134;5.424;2023-04-28T12:37:33;101162.84;;;12.35;95.39
72086;BME280;64750;52.134;5.424;2023-04-28T12:40:00;101168.84;;;12.37;95.42
72086;BME280;64750;52.134;5.424;2023-04-28T12:42:29;101164.59;;;12.34;95.37
72086;BME280;64750;52.134;5.424;2023-04-28T12:44:55;101166.50;;;12.32;95.26
72086;BME280;64750;52.134;5.424;2023-04-28T12:47:22;101169.03;;;12.34;95.15
72086;BME280;64750;52.134;5.424;2023-04-28T12:49:49;101164.59;;;12.34;95.02
72086;BME280;64750;52.134;5.424;2023-04-28T12:52:17;101165.38;;;12.36;94.92
72086;BME280;64750;52.134;5.424;2023-04-28T12:54:44;101168.66;;;12.40;94.77
72086;BME280;64750;52.134;5.424;2023-04-28T12:57:13;101162.47;;;12.41;94.56
72086;BME280;64750;52.134;5.424;2023-04-28T12:59:39;101164.88;;;12.44;94.45
72086;BME280;64750;52.134;5.424;2023-04-28T13:02:06;101161.97;;;12.49;94.25
72086;BME280;64750;52.134;5.424;2023-04-28T13:04:33;101162.69;;;12.51;94.93
72086;BME280;64750;52.134;5.424;2023-04-28T13:07:00;101166.94;;;12.53;95.24
72086;BME280;64750;52.134;5.424;2023-04-28T13:09:27;101175.72;;;12.54;94.92
72086;BME280;64750;52.134;5.424;2023-04-28T13:11:53;101165.06;;;12.55;94.98
72086;BME280;64750;52.134;5.424;2023-04-28T13:14:20;101159.47;;;12.60;95.15
72086;BME280;64750;52.134;5.424;2023-04-28T13:16:47;101166.66;;;12.58;95.14
72086;BME280;64750;52.134;5.424;2023-04-28T13:19:14;101166.75;;;12.56;94.82
72086;BME280;64750;52.134;5.424;2023-04-28T13:21:40;101164.75;;;12.60;94.69
72086;BME280;64750;52.134;5.424;2023-04-28T13:24:08;101157.81;;;12.59;94.60
72086;BME280;64750;52.134;5.424;2023-04-28T13:26:35;101168.16;;;12.62;94.63
72086;BME280;64750;52.134;5.424;2023-04-28T13:29:03;101166.44;;;12.61;94.67
72086;BME280;64750;52.134;5.424;2023-04-28T13:31:30;101161.94;;;12.63;94.57
72086;BME280;64750;52.134;5.424;2023-04-28T13:33:56;101173.22;;;12.65;94.45